Time;durP1;ratioP1;P1;durP2;ratioP2;P2;SDS_P1;SDS_P2;PMS_P1;PMS_P2;Temp;Humidity;BMP_temperature;BMP_pressure;BME280_temperature;BME280_humidity;BME280_pressure;Samples;Min_cycle;Max_cycle;Signal;HPM_P1;HPM_P2
2023/01/24 00:01:23;;;;;;;17.70;9.83;;;;;;;6.23;64.23;102344.19;5034905;28;20725;-65
2023/01/24 00:03:51;;;;;;;16.27;8.80;;;;;;;6.17;64.37;102341.81;5037254;28;20600;-64
2023/01/24 00:06:19;;;;;;;17.60;9.23;;;;;;;6.19;64.36;102347.03;5036423;28;20213;-64
2023/01/24 00:08:47;;;;;;;14.33;8.40;;;;;;;6.15;64.53;102343.69;5037994;28;20541;-64
2023/01/24 00:11:15;;;;;;;18.83;9.80;;;;;;;6.18;64.59;102337.41;5035845;28;20220;-64
2023/01/24 00:13:44;;;;;;;16.10;8.60;;;;;;;6.20;64.41;102338.19;5036919;28;20207;-65
2023/01/24 00:16:17;;;;;;;18.47;9.80;;;;;;;6.18;64.37;102347.94;5035158;28;20804;-64
2023/01/24 00:18:45;;;;;;;14.60;8.33;;;;;;;6.18;64.50;102343.53;5035401;28;20223;-64
2023/01/24 00:21:14;;;;;;;19.30;9.27;;;;;;;6.18;64.30;102346.16;5036585;28;20586;-65
2023/01/24 00:23:43;;;;;;;19.43;9.37;;;;;;;6.21;64.33;102343.41;5036842;28;20208;-65
2023/01/24 00:26:12;;;;;;;16.87;9.23;;;;;;;6.23;64.09;102338.06;5035631;28;20335;-64
2023/01/24 00:28:40;;;;;;;14.33;8.33;;;;;;;6.24;64.09;102342.41;5034072;28;20209;-65
2023/01/24 00:31:09;;;;;;;17.23;8.23;;;;;;;6.25;64.04;102339.66;5034931;28;20219;-64
2023/01/24 00:33:37;;;;;;;17.47;9.47;;;;;;;6.27;64.01;102342.22;5037729;28;20205;-64
2023/01/24 00:36:06;;;;;;;19.00;9.00;;;;;;;6.17;64.17;102346.22;5035528;28;20217;-64
2023/01/24 00:38:34;;;;;;;15.57;9.70;;;;;;;6.10;64.55;102332.50;5036195;28;20232;-64
2023/01/24 00:41:02;;;;;;;15.03;8.30;;;;;;;6.12;64.73;102340.34;5041911;28;20208;-64
2023/01/24 00:43:30;;;;;;;15.37;9.00;;;;;;;6.09;64.59;102345.75;5035840;28;20299;-66
2023/01/24 00:45:59;;;;;;;15.83;9.17;;;;;;;6.04;64.54;102338.94;5036007;28;20306;-64
2023/01/24 00:48:37;;;;;;;16.63;8.77;;;;;;;6.10;64.47;102344.84;5034134;28;20332;-64
2023/01/24 00:51:05;;;;;;;15.67;8.37;;;;;;;6.12;64.46;102343.84;5036677;28;20219;-64
2023/01/24 00:53:33;;;;;;;16.10;9.00;;;;;;;6.13;64.58;102334.16;5035683;28;20227;-63
2023/01/24 00:56:01;;;;;;;16.40;9.00;;;;;;;6.13;64.58;102340.28;5038580;28;20235;-65
2023/01/24 00:58:29;;;;;;;15.10;7.97;;;;;;;6.13;64.60;102340.28;5036649;28;20238;-64
2023/01/24 01:01:00;;;;;;;14.83;8.07;;;;;;;6.17;64.40;102336.56;5035302;28;20318;-65
2023/01/24 01:03:28;;;;;;;14.67;8.90;;;;;;;6.13;64.21;102335.00;5037728;28;20199;-64
2023/01/24 01:06:01;;;;;;;14.20;7.73;;;;;;;6.15;63.92;102332.31;5036823;28;20205;-63
2023/01/24 01:08:29;;;;;;;16.07;8.80;;;;;;;5.95;64.22;102336.75;5035786;28;20215;-64
2023/01/24 01:10:57;;;;;;;16.63;8.20;;;;;;;5.85;64.72;102340.72;5035217;28;20581;-64
2023/01/24 01:13:26;;;;;;;15.33;8.27;;;;;;;5.80;64.92;102333.97;5036629;28;20212;-64
2023/01/24 01:16:01;;;;;;;14.40;7.80;;;;;;;5.74;65.07;102326.34;5037082;28;20646;-65
2023/01/24 01:18:29;;;;;;;15.47;8.87;;;;;;;5.72;65.27;102336.09;5032760;28;20232;-64
2023/01/24 01:20:56;;;;;;;13.90;7.93;;;;;;;5.76;65.59;102335.03;5034337;28;20212;-65
2023/01/24 01:23:25;;;;;;;17.67;9.00;;;;;;;5.81;65.66;102338.28;5037781;28;20239;-65
2023/01/24 01:25:53;;;;;;;14.77;8.00;;;;;;;5.88;65.23;102342.38;5038568;28;20200;-65
2023/01/24 01:28:21;;;;;;;15.83;8.53;;;;;;;5.96;64.94;102348.13;5035475;28;20204;-65
2023/01/24 01:30:53;;;;;;;15.67;8.77;;;;;;;5.99;65.05;102347.97;5036319;28;20212;-65
2023/01/24 01:33:21;;;;;;;13.83;8.53;;;;;;;6.09;64.89;102351.88;5035208;28;20220;-65
2023/01/24 01:35:50;;;;;;;15.27;8.47;;;;;;;6.13;64.83;102352.59;5038736;28;20338;-65
2023/01/24 01:38:18;;;;;;;18.27;9.73;;;;;;;6.08;65.01;102347.53;5034354;28;20847;-65
2023/01/24 01:40:47;;;;;;;16.13;8.50;;;;;;;6.15;64.79;102348.97;5035939;28;20300;-65
2023/01/24 01:43:17;;;;;;;17.57;9.43;;;;;;;6.16;64.52;102362.97;5035810;28;20212;-64
2023/01/24 01:45:46;;;;;;;15.80;9.10;;;;;;;6.17;64.49;102354.13;5035826;28;20224;-64
2023/01/24 01:48:21;;;;;;;15.93;8.53;;;;;;;6.14;64.93;102349.91;5039100;28;20208;-64
2023/01/24 01:50:55;;;;;;;15.70;8.83;;;;;;;6.11;64.73;102357.06;5037994;28;20918;-65
2023/01/24 01:53:28;;;;;;;15.03;8.50;;;;;;;6.10;64.72;102356.22;5036626;28;20211;-64
2023/01/24 01:56:02;;;;;;;18.57;9.37;;;;;;;6.02;64.79;102358.38;5036455;28;20296;-63
2023/01/24 01:58:31;;;;;;;16.93;9.13;;;;;;;6.03;65.28;102360.09;5032066;28;20239;-65
2023/01/24 02:00:59;;;;;;;16.17;8.73;;;;;;;5.96;64.73;102356.91;5035904;28;20240;-66
2023/01/24 02:03:39;;;;;;;18.30;9.80;;;;;;;5.76;65.21;102361.34;5034254;28;20216;-65
2023/01/24 02:06:15;;;;;;;18.37;9.73;;;;;;;5.66;65.97;102367.03;5041177;28;20223;-65
2023/01/24 02:08:45;;;;;;;17.33;9.80;;;;;;;5.62;66.08;102359.38;5034024;28;20208;-65
2023/01/24 02:16:46;;;;;;;17.93;9.63;;;;;;;5.56;66.21;102368.38;5034435;28;20833;-65
2023/01/24 02:19:29;;;;;;;19.07;9.83;;;;;;;5.53;66.70;102368.53;5032750;28;20240;-65
2023/01/24 02:22:02;;;;;;;15.90;8.67;;;;;;;5.53;66.59;102368.53;5034606;28;20209;-62
2023/01/24 02:24:37;;;;;;;15.73;8.73;;;;;;;5.59;66.36;102381.41;5037349;28;20196;-65
2023/01/24 02:27:07;;;;;;;15.90;8.57;;;;;;;5.62;66.31;102381.28;5035854;28;20209;-65
2023/01/24 02:29:35;;;;;;;14.97;8.73;;;;;;;5.73;65.83;102379.91;5033249;28;20208;-63
2023/01/24 02:32:07;;;;;;;17.90;9.47;;;;;;;5.84;65.65;102386.38;5036572;28;20212;-63
2023/01/24 02:34:35;;;;;;;19.37;9.73;;;;;;;5.89;65.47;102386.22;5033769;28;20529;-64
2023/01/24 02:37:06;;;;;;;17.67;9.47;;;;;;;5.93;65.05;102385.13;5033737;28;20748;-63
2023/01/24 02:39:42;;;;;;;18.67;9.43;;;;;;;5.88;64.84;102395.06;5035460;28;20591;-64
2023/01/24 02:42:14;;;;;;;17.27;8.83;;;;;;;5.77;65.13;102389.38;5039717;28;20606;-63
2023/01/24 02:44:45;;;;;;;14.50;8.33;;;;;;;5.68;65.47;102396.78;5038837;28;20212;-64
2023/01/24 02:47:13;;;;;;;16.77;8.83;;;;;;;5.71;65.63;102398.44;5036785;28;20212;-64
2023/01/24 02:49:41;;;;;;;16.70;9.03;;;;;;;5.73;65.36;102390.44;5037640;28;20216;-64
2023/01/24 02:54:55;;;;;;;16.97;9.00;;;;;;;5.84;65.30;102393.44;5040338;28;20304;-64
2023/01/24 03:00:11;;;;;;;16.27;8.20;;;;;;;5.91;65.10;102392.25;5037886;28;20244;-63
2023/01/24 03:02:39;;;;;;;16.93;8.77;;;;;;;5.96;64.61;102391.13;5039700;28;20216;-64
2023/01/24 03:05:07;;;;;;;16.33;9.33;;;;;;;5.99;64.42;102398.00;5039369;28;20299;-64
2023/01/24 03:07:44;;;;;;;15.73;8.23;;;;;;;6.04;64.42;102398.66;5037222;28;20776;-64
2023/01/24 03:10:13;;;;;;;14.83;8.33;;;;;;;5.91;64.20;102389.63;5039675;28;20254;-64
2023/01/24 03:34:49;;;;;;;14.93;8.73;;;;;;;5.85;64.73;102403.91;5035243;28;20583;-64
2023/01/24 03:39:53;;;;;;;17.40;8.73;;;;;;;5.85;64.34;102389.88;5035356;28;20208;-64
2023/01/24 03:40:08;;;;;;;15.70;8.30;;;;;;;5.79;64.97;102398.06;5038892;28;20236;-64
2023/01/24 03:42:46;;;;;;;16.20;9.33;;;;;;;5.83;65.10;102402.25;5037974;28;20208;-64
2023/01/24 03:45:17;;;;;;;14.60;9.17;;;;;;;5.85;64.35;102403.91;5038585;28;20303;-64
2023/01/24 03:47:54;;;;;;;15.20;8.87;;;;;;;5.78;64.74;102399.00;5036783;28;22302;-65
2023/01/24 03:53:09;;;;;;;19.20;9.53;;;;;;;5.65;65.19;102396.91;5037491;28;20239;-64
2023/01/24 03:55:36;;;;;;;17.97;8.73;;;;;;;5.70;65.32;102403.75;5038519;28;20216;-64
2023/01/24 03:58:05;;;;;;;13.63;8.57;;;;;;;5.65;65.37;102396.91;5035966;28;20211;-64
2023/01/24 04:00:35;;;;;;;17.57;9.67;;;;;;;5.70;65.52;102403.75;5037474;28;20603;-64
2023/01/24 04:03:03;;;;;;;18.73;9.80;;;;;;;5.75;65.04;102401.75;5039957;28;20247;-64
2023/01/24 04:05:32;;;;;;;18.07;9.53;;;;;;;5.60;65.65;102401.53;5037217;28;20335;-64
2023/01/24 04:08:00;;;;;;;18.60;9.73;;;;;;;5.64;65.62;102405.72;5038479;28;20549;-64
2023/01/24 04:10:28;;;;;;;20.00;10.17;;;;;;;5.72;65.37;102407.19;5036294;28;20687;-64
2023/01/24 04:12:56;;;;;;;18.67;9.77;;;;;;;5.74;65.26;102413.22;5036819;28;20208;-65
2023/01/24 04:15:26;;;;;;;20.47;10.83;;;;;;;5.77;65.50;102405.19;5039103;28;20668;-63
2023/01/24 04:17:57;;;;;;;18.00;9.57;;;;;;;5.85;65.16;102405.69;5037153;28;20216;-63
2023/01/24 04:20:26;;;;;;;15.63;8.30;;;;;;;5.84;64.90;102401.34;5038349;28;21255;-64
2023/01/24 04:22:54;;;;;;;15.47;8.83;;;;;;;5.84;65.15;102403.97;5036799;28;20287;-64
2023/01/24 04:25:22;;;;;;;15.73;9.00;;;;;;;5.91;64.98;102400.16;5035900;28;20204;-64
2023/01/24 04:27:51;;;;;;;17.33;9.50;;;;;;;5.98;64.66;102399.78;5035649;28;20288;-65
2023/01/24 04:30:19;;;;;;;20.40;8.57;;;;;;;5.97;64.51;102397.25;5035402;28;20204;-66
2023/01/24 04:32:46;;;;;;;15.23;9.00;;;;;;;6.02;64.17;102395.25;5034080;28;20299;-64
2023/01/24 04:35:19;;;;;;;16.10;9.10;;;;;;;5.98;64.47;102393.69;5038581;28;20680;-64
2023/01/24 04:37:47;;;;;;;17.67;9.70;;;;;;;5.99;64.52;102400.66;5036049;28;20204;-64
2023/01/24 04:40:16;;;;;;;17.20;9.30;;;;;;;6.05;64.37;102397.75;5036191;28;20233;-64
2023/01/24 04:42:44;;;;;;;16.57;9.80;;;;;;;6.09;64.34;102395.81;5034062;28;20200;-64
2023/01/24 04:45:12;;;;;;;17.97;9.50;;;;;;;6.10;64.19;102386.97;5033311;28;20219;-64
2023/01/24 04:47:40;;;;;;;15.70;8.80;;;;;;;6.10;64.12;102387.84;5033089;28;20559;-65
2023/01/24 04:50:09;;;;;;;17.70;9.47;;;;;;;6.15;64.23;102395.53;5034796;28;20231;-64
2023/01/24 04:52:38;;;;;;;17.27;10.10;;;;;;;6.13;64.24;102386.84;5036887;28;20223;-64
2023/01/24 04:55:07;;;;;;;18.70;10.00;;;;;;;6.15;64.37;102385.00;5037626;28;20215;-65
2023/01/24 04:57:35;;;;;;;18.67;9.63;;;;;;;6.13;64.23;102382.44;5035779;28;20226;-64
2023/01/24 05:00:04;;;;;;;17.40;10.33;;;;;;;6.09;64.39;102383.50;5035363;28;20240;-64
2023/01/24 05:02:32;;;;;;;16.93;9.10;;;;;;;6.11;64.18;102383.41;5036653;28;20216;-64
2023/01/24 05:05:00;;;;;;;18.90;10.37;;;;;;;6.03;63.94;102383.78;5033782;28;20208;-65
2023/01/24 05:07:27;;;;;;;18.27;9.93;;;;;;;5.88;64.62;102392.41;5034255;28;20222;-64
2023/01/24 05:09:57;;;;;;;16.17;9.07;;;;;;;5.84;64.98;102389.03;5037919;28;20295;-64
2023/01/24 05:12:24;;;;;;;16.67;8.70;;;;;;;5.85;65.32;102393.38;5034741;28;20221;-64
2023/01/24 05:14:52;;;;;;;18.20;9.83;;;;;;;5.92;65.16;102386.06;5033973;28;20250;-64
2023/01/24 05:17:20;;;;;;;17.40;9.77;;;;;;;5.93;64.89;102393.03;5033062;28;20718;-64
2023/01/24 05:19:47;;;;;;;16.47;9.93;;;;;;;5.97;64.77;102386.72;5035973;28;20231;-65
2023/01/24 05:22:15;;;;;;;15.83;9.20;;;;;;;6.02;64.29;102389.97;5039063;28;20231;-65
2023/01/24 05:24:43;;;;;;;16.33;9.67;;;;;;;5.99;64.54;102395.38;5037664;28;20239;-64
2023/01/24 05:27:12;;;;;;;17.73;9.47;;;;;;;5.99;64.53;102400.66;5035347;28;20327;-64
2023/01/24 05:29:40;;;;;;;15.40;8.77;;;;;;;6.01;64.36;102394.38;5037129;28;20255;-64
2023/01/24 05:32:07;;;;;;;17.83;9.80;;;;;;;6.04;64.42;102398.66;5038073;28;20780;-64
2023/01/24 05:34:35;;;;;;;17.80;9.27;;;;;;;5.95;64.82;102393.84;5035896;28;20224;-65
2023/01/24 05:37:03;;;;;;;16.10;8.60;;;;;;;5.93;64.47;102396.53;5035114;28;20678;-65
2023/01/24 05:39:33;;;;;;;16.53;9.23;;;;;;;5.96;64.26;102401.66;5037486;28;20853;-65
2023/01/24 05:42:01;;;;;;;17.33;9.10;;;;;;;6.00;64.13;102403.22;5037550;28;20225;-65
2023/01/24 05:44:30;;;;;;;14.77;8.53;;;;;;;6.04;64.01;102399.53;5033871;28;21169;-64
2023/01/24 05:46:58;;;;;;;17.00;9.53;;;;;;;6.04;64.12;102396.88;5041029;28;20493;-64
2023/01/24 05:49:26;;;;;;;15.50;9.10;;;;;;;6.09;64.02;102415.09;5053311;28;20866;-64
2023/01/24 05:51:53;;;;;;;18.27;10.30;;;;;;;6.08;63.96;102416.00;5048644;28;20759;-64
2023/01/24 05:54:21;;;;;;;17.60;10.30;;;;;;;6.08;63.96;102421.28;5050857;28;20212;-66
2023/01/24 05:56:49;;;;;;;17.10;9.53;;;;;;;6.00;63.75;102426.91;5050934;28;20252;-65
2023/01/24 05:59:17;;;;;;;15.83;9.40;;;;;;;5.82;64.24;102430.34;5052031;28;20211;-66
2023/01/24 06:01:49;;;;;;;22.73;9.50;;;;;;;5.82;64.74;102430.34;5053509;28;20451;-64
2023/01/24 06:04:16;;;;;;;16.77;9.37;;;;;;;5.91;64.79;102434.38;5050783;28;20214;-64
2023/01/24 06:06:44;;;;;;;19.83;9.93;;;;;;;5.90;64.40;102432.66;5050566;28;20543;-64
2023/01/24 06:09:12;;;;;;;17.90;9.33;;;;;;;5.95;64.33;102446.50;5053075;28;20215;-64
2023/01/24 06:11:40;;;;;;;18.07;9.50;;;;;;;5.90;64.40;102448.47;5049591;28;20346;-64
2023/01/24 06:14:07;;;;;;;16.70;9.20;;;;;;;5.91;64.39;102444.91;5056761;28;20230;-64
2023/01/24 06:16:35;;;;;;;18.03;9.23;;;;;;;5.89;64.16;102447.63;5059646;28;20211;-65
2023/01/24 06:19:04;;;;;;;16.53;8.80;;;;;;;5.88;64.27;102450.34;5056478;28;20553;-65
2023/01/24 06:21:44;;;;;;;20.73;9.77;;;;;;;5.84;64.17;102451.38;5058215;28;20238;-65
2023/01/24 06:24:17;;;;;;;17.27;9.67;;;;;;;5.87;64.55;102454.72;5058485;28;20243;-66
2023/01/24 06:26:46;;;;;;;14.87;9.00;;;;;;;5.86;64.69;102447.75;5059761;28;20270;-63
2023/01/24 06:29:15;;;;;;;17.50;9.33;;;;;;;5.84;64.55;102454.00;5056571;28;20284;-64
2023/01/24 06:31:50;;;;;;;16.07;9.00;;;;;;;5.87;64.42;102456.50;5053200;28;20291;-64
2023/01/24 06:34:33;;;;;;;17.80;9.37;;;;;;;5.80;64.36;102455.06;5055478;28;20215;-65
2023/01/24 06:37:12;;;;;;;17.27;8.67;;;;;;;5.78;64.44;102456.91;5056896;28;20330;-64
2023/01/24 06:39:49;;;;;;;17.00;9.13;;;;;;;5.70;64.88;102464.31;5058995;28;20221;-64
2023/01/24 06:42:17;;;;;;;16.30;8.80;;;;;;;5.75;64.93;102457.03;5057755;28;20321;-64
2023/01/24 06:44:45;;;;;;;15.70;8.70;;;;;;;5.78;64.49;102470.09;5056788;28;20250;-64
2023/01/24 06:47:13;;;;;;;14.50;8.17;;;;;;;5.66;64.71;102469.69;5058041;28;20208;-64
2023/01/24 06:49:43;;;;;;;15.37;8.77;;;;;;;5.54;65.20;102472.03;5059324;28;20203;-66
2023/01/24 06:52:12;;;;;;;14.83;9.00;;;;;;;5.47;65.49;102474.06;5056174;28;20208;-63
2023/01/24 06:54:40;;;;;;;17.23;9.00;;;;;;;5.48;65.77;102477.53;5054447;28;20279;-62
2023/01/24 06:57:08;;;;;;;17.00;8.80;;;;;;;5.54;65.64;102472.84;5054751;28;20203;-63
2023/01/24 06:59:36;;;;;;;15.83;8.50;;;;;;;5.52;65.48;102479.97;5053710;28;20215;-61
2023/01/24 07:02:04;;;;;;;15.00;9.23;;;;;;;5.53;65.89;102481.69;5055051;28;20235;-62
2023/01/24 07:04:31;;;;;;;16.73;9.57;;;;;;;5.53;65.67;102484.34;5059348;28;20235;-64
2023/01/24 07:07:00;;;;;;;17.17;9.47;;;;;;;5.56;65.50;102475.44;5055082;28;20226;-63
2023/01/24 07:09:28;;;;;;;18.10;9.63;;;;;;;5.43;65.84;102480.38;5053084;28;20303;-63
2023/01/24 07:11:58;;;;;;;17.03;9.53;;;;;;;5.42;66.13;102483.06;5058015;28;20254;-63
2023/01/24 07:14:26;;;;;;;18.70;9.93;;;;;;;5.41;66.64;102492.75;5057249;28;20242;-62
2023/01/24 07:16:55;;;;;;;18.67;8.97;;;;;;;5.41;66.36;102492.75;5055767;28;20207;-67
2023/01/24 07:19:25;;;;;;;19.60;9.60;;;;;;;5.41;66.60;102491.88;5056854;28;20207;-67
2023/01/24 07:21:56;;;;;;;18.80;9.17;;;;;;;5.50;66.70;102494.97;5058721;28;20266;-68
2023/01/24 07:24:29;;;;;;;16.80;8.90;;;;;;;5.50;66.24;102497.63;5059032;28;20208;-68
2023/01/24 07:26:57;;;;;;;16.70;9.00;;;;;;;5.43;66.31;102501.44;5054373;28;20212;-68
2023/01/24 07:29:25;;;;;;;17.83;8.53;;;;;;;5.44;66.21;102502.28;5056517;28;20216;-67
2023/01/24 07:31:53;;;;;;;17.07;9.37;;;;;;;5.39;66.70;102505.09;5055722;28;20207;-68
2023/01/24 07:34:22;;;;;;;18.87;9.23;;;;;;;5.43;66.34;102511.09;5055936;28;20218;-68
2023/01/24 07:36:50;;;;;;;17.10;9.47;;;;;;;5.39;66.43;102515.63;5057864;28;20211;-67
2023/01/24 07:39:17;;;;;;;20.13;9.60;;;;;;;5.44;66.78;102513.69;5056794;28;20302;-67
2023/01/24 07:41:47;;;;;;;15.93;9.27;;;;;;;5.54;66.75;102516.78;5058441;28;20246;-67
2023/01/24 07:44:14;;;;;;;15.63;7.93;;;;;;;5.60;66.46;102513.88;5057852;28;20219;-68
2023/01/24 07:46:43;;;;;;;15.80;9.03;;;;;;;5.66;65.85;102516.22;5058884;28;20212;-68
2023/01/24 07:49:10;;;;;;;19.03;9.50;;;;;;;5.67;65.85;102518.78;5056537;28;20933;-68
2023/01/24 07:51:39;;;;;;;18.20;9.93;;;;;;;5.73;65.82;102520.28;5055480;28;20672;-66
2023/01/24 07:54:07;;;;;;;18.40;9.30;;;;;;;5.82;65.72;102522.50;5051687;28;20957;-67
2023/01/24 07:56:37;;;;;;;18.83;9.23;;;;;;;5.91;65.32;102529.19;5054806;28;20269;-67
2023/01/24 07:59:06;;;;;;;15.57;8.93;;;;;;;5.95;65.18;102525.50;5054516;28;20214;-66
2023/01/24 08:01:34;;;;;;;19.07;8.80;;;;;;;5.95;65.29;102530.78;5057634;28;20242;-67
2023/01/24 08:04:02;;;;;;;18.50;9.97;;;;;;;6.02;64.94;102532.19;5056405;28;20212;-66
2023/01/24 08:06:30;;;;;;;16.20;8.93;;;;;;;6.03;65.42;102539.19;5056723;28;20236;-68
2023/01/24 08:08:57;;;;;;;17.53;8.87;;;;;;;6.02;65.20;102532.19;5056222;28;20208;-66
2023/01/24 08:11:25;;;;;;;17.73;9.20;;;;;;;5.98;65.54;102541.19;5055702;28;20660;-65
2023/01/24 08:13:54;;;;;;;18.10;9.03;;;;;;;6.01;65.42;102539.25;5057915;28;20211;-66
2023/01/24 08:16:25;;;;;;;14.13;8.30;;;;;;;6.10;64.99;102537.97;5058651;28;20805;-67
2023/01/24 08:18:53;;;;;;;17.10;8.37;;;;;;;6.14;64.79;102547.47;5056107;28;20265;-67
2023/01/24 08:21:21;;;;;;;17.33;9.53;;;;;;;6.17;64.33;102547.31;5056009;28;20231;-68
2023/01/24 08:23:49;;;;;;;18.50;9.57;;;;;;;6.04;64.68;102551.44;5057659;28;20207;-69
2023/01/24 08:26:17;;;;;;;18.87;8.17;;;;;;;6.08;64.99;102545.09;5057476;28;20227;-68
2023/01/24 08:28:45;;;;;;;15.57;9.13;;;;;;;6.14;64.82;102552.75;5056777;28;20252;-68
2023/01/24 08:31:13;;;;;;;16.17;9.10;;;;;;;6.18;64.45;102549.03;5056686;28;20889;-67
2023/01/24 08:33:42;;;;;;;16.37;8.97;;;;;;;6.12;64.75;102553.72;5055020;28;20232;-68
2023/01/24 08:36:10;;;;;;;15.93;8.30;;;;;;;6.10;65.26;102550.28;5056746;28;20603;-67
2023/01/24 08:38:38;;;;;;;17.53;9.60;;;;;;;6.12;65.95;102544.03;5058571;28;20215;-66
2023/01/24 08:41:07;;;;;;;14.50;8.70;;;;;;;6.08;65.67;102547.72;5058753;28;20269;-67
2023/01/24 08:43:36;;;;;;;20.53;8.83;;;;;;;6.06;65.74;102552.22;5056946;28;20208;-66
2023/01/24 08:46:04;;;;;;;17.93;8.70;;;;;;;6.02;65.58;102553.28;5054684;28;20261;-67
2023/01/24 08:48:32;;;;;;;16.53;8.57;;;;;;;5.99;65.88;102556.03;5056408;28;20261;-67
2023/01/24 08:51:07;;;;;;;17.13;8.83;;;;;;;5.95;66.35;102555.34;5055927;28;20215;-67
2023/01/24 08:53:35;;;;;;;17.17;9.30;;;;;;;6.01;66.28;102562.97;5051826;28;20294;-68
2023/01/24 08:56:03;;;;;;;18.63;8.07;;;;;;;6.06;65.90;102560.13;5053044;28;20705;-68
2023/01/24 08:58:33;;;;;;;16.63;8.60;;;;;;;5.96;65.93;102554.41;5050557;28;20208;-68
2023/01/24 09:01:01;;;;;;;16.97;9.00;;;;;;;5.74;66.68;102560.63;5051345;28;20250;-68
2023/01/24 09:03:29;;;;;;;18.50;8.23;;;;;;;5.72;67.23;102563.34;5053326;28;20751;-67
2023/01/24 09:05:58;;;;;;;15.63;8.40;;;;;;;5.81;67.06;102575.25;5056381;28;20759;-68
2023/01/24 09:08:28;;;;;;;15.30;8.53;;;;;;;5.77;67.06;102568.41;5054893;28;20242;-68
2023/01/24 09:10:58;;;;;;;16.67;8.97;;;;;;;5.78;67.42;102575.38;5053500;28;20677;-68
2023/01/24 09:13:27;;;;;;;17.30;8.47;;;;;;;5.78;67.14;102570.13;5055041;28;20207;-68
2023/01/24 09:15:54;;;;;;;14.10;7.77;;;;;;;5.73;67.40;102567.69;5051640;28;20217;-69
2023/01/24 09:18:23;;;;;;;14.40;7.87;;;;;;;5.77;67.67;102565.78;5052037;28;20469;-68
2023/01/24 09:20:51;;;;;;;16.17;8.33;;;;;;;5.76;67.46;102575.44;5054378;28;20260;-68
2023/01/24 09:23:19;;;;;;;17.10;7.87;;;;;;;5.82;67.29;102571.69;5056278;28;20318;-68
2023/01/24 09:25:53;;;;;;;17.07;8.23;;;;;;;5.85;67.08;102574.19;5056182;28;20311;-68
2023/01/24 09:28:21;;;;;;;15.40;7.63;;;;;;;5.88;66.99;102572.34;5052705;28;20207;-68
2023/01/24 09:30:49;;;;;;;16.03;8.27;;;;;;;5.95;66.88;102580.81;5054260;28;20204;-68
2023/01/24 09:33:18;;;;;;;22.57;8.90;;;;;;;5.87;67.05;102580.25;5056302;28;20280;-66
2023/01/24 09:35:52;;;;;;;14.53;8.10;;;;;;;5.95;66.92;102583.44;5052345;28;20222;-66
2023/01/24 09:38:22;;;;;;;14.57;7.67;;;;;;;5.90;66.94;102586.25;5057490;28;20231;-66
2023/01/24 09:41:02;;;;;;;15.63;7.70;;;;;;;5.89;67.32;102581.09;5052952;28;20254;-67
2023/01/24 09:43:43;;;;;;;15.00;7.53;;;;;;;5.90;67.01;102574.88;5056754;28;20226;-67
2023/01/24 09:46:19;;;;;;;14.23;8.17;;;;;;;5.88;67.26;102571.47;5053178;28;20207;-68
2023/01/24 09:48:48;;;;;;;14.13;7.90;;;;;;;5.97;67.45;102571.06;5051895;28;20211;-68
2023/01/24 09:51:20;;;;;;;14.13;7.80;;;;;;;6.06;66.69;102570.66;5055156;28;20208;-68
2023/01/24 09:53:52;;;;;;;16.07;7.80;;;;;;;6.13;66.34;102569.47;5052938;28;20204;-67
2023/01/24 09:56:30;;;;;;;15.63;8.20;;;;;;;6.04;65.95;102567.25;5051404;28;20207;-68
2023/01/24 09:59:14;;;;;;;14.87;8.07;;;;;;;5.96;66.73;102575.47;5052260;28;20433;-71
2023/01/24 10:01:42;;;;;;;17.73;7.80;;;;;;;5.97;66.96;102571.94;5055611;28;20311;-67
2023/01/24 10:04:15;;;;;;;13.60;7.73;;;;;;;5.98;66.62;102567.53;5058624;28;20830;-68
2023/01/24 10:06:55;;;;;;;15.77;8.53;;;;;;;6.01;66.87;102570.00;5053627;28;20200;-68
2023/01/24 10:09:33;;;;;;;15.27;7.47;;;;;;;6.08;66.93;102581.13;5058286;28;20314;-68
2023/01/24 10:12:14;;;;;;;16.73;8.13;;;;;;;6.18;66.46;102575.38;5053283;28;20195;-68
2023/01/24 10:14:55;;;;;;;15.47;7.10;;;;;;;6.13;66.49;102571.25;5055335;28;20233;-68
2023/01/24 10:17:45;;;;;;;16.30;7.77;;;;;;;6.11;66.62;102573.09;5052978;28;20222;-68
2023/01/24 10:20:38;;;;;;;14.93;7.27;;;;;;;6.21;66.39;102575.25;5052057;28;20211;-67
2023/01/24 10:23:13;;;;;;;13.47;8.03;;;;;;;6.22;66.42;102576.97;5055362;28;20224;-68
2023/01/24 10:25:51;;;;;;;13.67;7.63;;;;;;;6.24;66.16;102575.13;5054289;28;20203;-67
2023/01/24 10:28:25;;;;;;;13.57;7.27;;;;;;;6.26;66.17;102578.50;5051544;28;20210;-68
2023/01/24 10:31:02;;;;;;;16.87;7.80;;;;;;;6.22;66.47;102576.97;5053986;28;20249;-67
2023/01/24 10:33:36;;;;;;;17.70;8.10;;;;;;;6.25;66.21;102582.06;5050131;28;20219;-68
2023/01/24 10:36:09;;;;;;;13.93;7.20;;;;;;;6.31;66.29;102581.81;5050740;28;20223;-69
2023/01/24 10:38:38;;;;;;;14.00;7.37;;;;;;;6.33;65.67;102573.84;5050948;28;20258;-69
2023/01/24 10:41:18;;;;;;;15.40;7.87;;;;;;;6.25;66.42;102582.06;5054182;28;20215;-67
2023/01/24 10:43:55;;;;;;;14.57;7.40;;;;;;;6.37;66.02;102578.03;5053583;28;20727;-70
2023/01/24 10:46:44;;;;;;;15.87;7.10;;;;;;;6.42;65.77;102576.88;5053130;28;20207;-68
2023/01/24 10:49:19;;;;;;;15.10;6.97;;;;;;;6.33;65.91;102569.41;5051406;28;20985;-67
2023/01/24 10:52:09;;;;;;;13.60;7.27;;;;;;;6.45;65.70;102572.41;5050813;28;20203;-68
2023/01/24 10:54:46;;;;;;;11.93;6.67;;;;;;;6.46;65.49;102563.56;5051767;28;20215;-68
2023/01/24 10:57:29;;;;;;;14.43;7.40;;;;;;;6.40;65.76;102578.75;5048312;28;20322;-69
2023/01/24 11:00:06;;;;;;;15.90;6.80;;;;;;;6.34;65.42;102579.00;5052785;28;20233;-68
2023/01/24 11:02:34;;;;;;;13.73;7.07;;;;;;;6.23;65.69;102589.22;5057057;28;20821;-66
2023/01/24 11:05:05;;;;;;;13.60;7.17;;;;;;;6.16;66.16;102576.34;5054517;28;20295;-67
2023/01/24 11:07:38;;;;;;;12.30;6.60;;;;;;;6.29;66.30;102581.03;5056764;28;20204;-67
2023/01/24 11:10:18;;;;;;;13.33;6.73;;;;;;;6.30;65.47;102573.97;5055747;28;20266;-69
2023/01/24 11:12:54;;;;;;;13.93;7.27;;;;;;;6.39;65.55;102574.41;5057402;28;20208;-66
2023/01/24 11:15:29;;;;;;;14.33;7.30;;;;;;;6.40;65.69;102576.13;5054675;28;20277;-68
2023/01/24 11:17:58;;;;;;;11.30;6.27;;;;;;;6.43;65.17;102586.50;5056956;28;20214;-68
2023/01/24 11:20:31;;;;;;;12.17;6.43;;;;;;;6.34;65.08;102580.78;5055648;28;20203;-70
2023/01/24 11:23:04;;;;;;;14.17;7.30;;;;;;;6.31;65.65;102580.97;5057801;28;20227;-69
2023/01/24 11:25:32;;;;;;;14.87;6.70;;;;;;;6.33;65.56;102585.22;5056680;28;20211;-69
2023/01/24 11:28:00;;;;;;;14.43;7.23;;;;;;;6.36;64.95;102585.09;5056095;28;20228;-69
2023/01/24 11:30:34;;;;;;;14.23;7.17;;;;;;;6.32;64.78;102582.66;5054796;28;20266;-68
2023/01/24 11:33:42;;;;;;;12.43;7.07;;;;;;;6.18;65.12;102583.28;5059887;28;20302;-68
2023/01/24 11:36:25;;;;;;;10.97;6.20;;;;;;;6.09;65.65;102585.47;5058203;28;20204;-65
2023/01/24 11:38:57;;;;;;;12.33;6.70;;;;;;;6.14;66.24;102573.81;5059117;28;20576;-68
2023/01/24 11:41:32;;;;;;;13.80;6.77;;;;;;;6.21;65.76;102571.75;5059527;28;20211;-68
2023/01/24 11:44:28;;;;;;;12.37;7.53;;;;;;;6.20;65.78;102562.13;5055448;28;20948;-69
2023/01/24 11:47:07;;;;;;;13.17;7.10;;;;;;;6.24;65.62;102561.94;5052661;28;20227;-69
2023/01/24 11:49:55;;;;;;;12.63;7.03;;;;;;;6.36;65.70;102561.38;5055711;28;20269;-68
2023/01/24 11:52:46;;;;;;;13.00;7.37;;;;;;;6.41;65.66;102567.28;5055862;28;20215;-69
2023/01/24 11:55:43;;;;;;;12.53;6.87;;;;;;;6.43;64.78;102554.88;5057664;28;20216;-68
2023/01/24 11:58:25;;;;;;;13.87;6.50;;;;;;;6.41;64.21;102563.81;5056597;28;20307;-66
2023/01/24 12:00:59;;;;;;;16.43;6.73;;;;;;;6.34;64.20;102562.34;5059313;28;20796;-68
2023/01/24 12:03:58;;;;;;;11.67;6.17;;;;;;;6.19;64.60;102563.06;5059682;28;20259;-67
2023/01/24 12:06:38;;;;;;;11.70;6.47;;;;;;;6.22;64.83;102560.28;5057417;28;20307;-68
2023/01/24 12:09:25;;;;;;;16.37;7.73;;;;;;;6.17;65.17;102554.34;5057332;28;20210;-67
2023/01/24 12:12:01;;;;;;;15.43;6.97;;;;;;;6.15;65.20;102558.88;5056933;28;21116;-67
2023/01/24 12:14:57;;;;;;;12.13;6.87;;;;;;;6.22;65.18;102545.34;5056932;28;20589;-68
2023/01/24 12:17:40;;;;;;;12.90;6.47;;;;;;;6.29;65.18;102536.22;5055315;28;20204;-68
2023/01/24 12:20:27;;;;;;;15.87;7.00;;;;;;;6.35;65.22;102535.94;5055937;28;20214;-67